Time;durP1;ratioP1;P1;durP2;ratioP2;P2;SDS_P1;SDS_P2;PMS_P1;PMS_P2;Temp;Humidity;BMP_temperature;BMP_pressure;BME280_temperature;BME280_humidity;BME280_pressure;Samples;Min_cycle;Max_cycle;Signal;HPM_P1;HPM_P2
2022/10/23 00:02:04;;;;;;;3.33;2.28;;;17.40;63.90;;;16.54;62.98;101311.97;12286037;19;20007;-85
2022/10/23 00:06:06;;;;;;;4.00;2.35;;;17.40;63.90;;;16.34;62.81;101290.50;12280372;19;20429;-85
2022/10/23 00:10:09;;;;;;;3.78;2.55;;;17.30;63.80;;;16.42;62.93;101313.69;12278813;19;20014;-85
2022/10/23 00:14:10;;;;;;;3.17;2.58;;;17.30;63.70;;;16.40;62.72;101326.13;12275508;19;20036;-84
2022/10/23 00:18:12;;;;;;;2.97;2.22;;;17.20;63.70;;;16.37;62.69;101327.19;12265525;19;20029;-85
2022/10/23 00:22:13;;;;;;;6.68;3.58;;;17.20;63.70;;;16.29;62.94;101321.59;12268263;19;20010;-84
2022/10/23 00:26:15;;;;;;;3.33;2.75;;;17.10;63.80;;;16.26;62.72;101332.38;12263331;19;20021;-86
2022/10/23 00:30:17;;;;;;;2.35;2.15;;;17.10;63.60;;;16.22;62.72;101335.31;12266293;19;20015;-85
2022/10/23 00:34:18;;;;;;;2.03;1.85;;;17.10;63.70;;;16.21;62.85;101336.28;12267740;19;20014;-85
2022/10/23 00:38:21;;;;;;;2.42;2.03;;;17.00;63.80;;;16.15;62.79;101348.06;12260433;19;20022;-86
2022/10/23 00:42:22;;;;;;;2.53;2.33;;;16.90;63.40;;;16.06;62.69;101335.50;12265689;19;20015;-85
2022/10/23 00:46:25;;;;;;;3.45;2.38;;;17.00;63.70;;;16.02;62.80;101339.31;12266267;19;20015;-85
2022/10/23 00:50:31;;;;;;;3.53;2.55;;;16.80;63.80;;;15.96;62.90;101345.00;12270888;19;20356;-85
2022/10/23 00:54:38;;;;;;;3.30;2.30;;;16.80;64.00;;;15.98;62.88;101351.00;12270472;19;20017;-85
2022/10/23 00:58:40;;;;;;;3.17;2.60;;;16.80;64.20;;;15.74;62.76;101311.38;12263434;19;20039;-85
2022/10/23 01:02:41;;;;;;;1.88;1.77;;;16.90;64.40;;;15.74;62.54;101319.25;12267017;19;20002;-86
2022/10/23 01:07:16;;;;;;;3.30;2.38;;;16.70;64.00;;;15.86;62.91;101347.41;12263350;19;20091;-85
2022/10/23 01:11:34;;;;;;;2.72;2.20;;;16.70;64.20;;;15.69;62.92;101324.88;12265415;19;20026;-84
2022/10/23 01:16:17;;;;;;;2.95;2.00;;;16.60;64.40;;;15.81;62.94;101358.25;12263600;19;20416;-85
2022/10/23 01:20:50;;;;;;;2.60;2.08;;;16.60;64.50;;;15.75;62.93;101342.88;12260921;19;20419;-85
2022/10/23 01:25:26;;;;;;;2.50;2.13;;;16.60;64.70;;;15.69;62.96;101336.22;12263461;19;20086;-84
2022/10/23 01:29:51;;;;;;;4.82;2.15;;;16.60;64.70;;;15.68;62.76;101344.19;12263683;19;20006;-84
2022/10/23 01:34:08;;;;;;;2.83;2.63;;;16.50;64.40;;;15.65;62.73;101339.97;12264967;19;20028;-85
2022/10/23 01:38:35;;;;;;;6.15;2.15;;;16.50;64.30;;;15.66;62.76;101352.22;12262592;19;20010;-84
2022/10/23 01:42:54;;;;;;;3.00;2.05;;;16.50;64.20;;;15.59;62.97;101347.44;12262999;19;20356;-85
2022/10/23 01:47:02;;;;;;;2.63;1.98;;;16.50;64.10;;;15.59;62.86;101350.09;12259935;19;20015;-86
2022/10/23 01:51:10;;;;;;;3.25;2.65;;;16.40;63.90;;;15.58;62.84;101359.78;12264751;19;20028;-85
2022/10/23 01:55:14;;;;;;;2.10;1.88;;;16.40;64.00;;;15.49;62.75;101344.56;12262762;19;20361;-84
2022/10/23 01:59:24;;;;;;;3.55;1.80;;;16.40;63.90;;;15.48;62.85;101356.88;12259133;19;20014;-85
2022/10/23 02:03:30;;;;;;;2.78;2.17;;;16.40;63.70;;;15.45;62.65;101353.63;12262533;19;20046;-85
2022/10/23 02:07:33;;;;;;;2.35;2.10;;;16.50;63.60;;;15.40;62.70;101351.28;12259534;19;20014;-85
2022/10/23 02:11:49;;;;;;;3.22;2.30;;;16.20;63.30;;;15.23;62.69;101339.25;12261530;19;20002;-85
2022/10/23 02:16:19;;;;;;;2.22;2.00;;;16.20;63.30;;;15.28;62.74;101354.69;12258962;19;20021;-85
2022/10/23 02:20:39;;;;;;;2.20;2.00;;;16.10;63.10;;;15.21;62.74;101353.44;12261897;19;20014;-85
2022/10/23 02:24:58;;;;;;;4.40;1.95;;;16.20;63.80;;;15.14;62.98;101349.50;12261534;19;20015;-85
2022/10/23 02:29:34;;;;;;;2.13;2.03;;;16.20;64.00;;;15.11;62.95;101354.97;12258245;19;20038;-85
2022/10/23 02:33:36;;;;;;;;;;;15.90;64.00;;;15.02;62.83;101338.81;12259026;19;20018;-85
2022/10/23 02:37:37;;;;;;;4.07;2.03;;;15.90;63.80;;;15.02;62.78;101341.47;12255899;19;19982;-85
2022/10/23 02:41:56;;;;;;;2.42;1.92;;;15.90;63.90;;;14.93;62.66;101336.78;12258586;19;20014;-85
2022/10/23 02:46:18;;;;;;;1.98;1.85;;;15.80;64.00;;;14.91;62.82;101337.84;12257007;19;20019;-85
2022/10/23 02:50:47;;;;;;;3.20;2.00;;;15.80;64.10;;;14.76;62.90;101321.22;12259683;19;20506;-84
2022/10/23 02:55:31;;;;;;;2.25;1.95;;;15.70;64.20;;;14.79;62.89;101339.44;12258577;19;20018;-85
2022/10/23 02:59:54;;;;;;;1.98;1.80;;;15.70;64.10;;;14.71;62.78;101332.03;12253236;19;20051;-84
2022/10/23 03:03:59;;;;;;;2.03;1.90;;;15.70;64.50;;;14.79;62.78;101345.53;12258342;19;20011;-85
2022/10/23 03:08:08;;;;;;;3.05;2.13;;;15.60;64.60;;;14.71;62.86;101337.28;12255249;19;20011;-85
2022/10/23 03:12:11;;;;;;;2.08;1.92;;;15.60;64.70;;;14.62;62.97;101321.25;12254929;19;20014;-85
2022/10/23 03:16:12;;;;;;;3.05;2.08;;;15.50;64.70;;;14.63;62.99;101318.53;12254400;19;20013;-84
2022/10/23 03:20:14;;;;;;;4.35;2.15;;;15.50;65.00;;;14.75;63.05;101337.97;12255365;19;20039;-85
2022/10/23 03:24:17;;;;;;;3.25;2.00;;;15.50;65.00;;;14.74;62.99;101344.13;12257419;19;20351;-85
2022/10/23 03:28:19;;;;;;;2.30;2.15;;;15.50;65.10;;;14.75;63.09;101343.22;12252935;19;20486;-85
2022/10/23 03:32:21;;;;;;;4.93;2.10;;;15.50;65.20;;;14.75;63.17;101337.97;12259649;19;20014;-85
2022/10/23 03:36:22;;;;;;;1.88;1.50;;;15.50;65.20;;;14.64;63.00;101320.22;12254668;19;20015;-84
2022/10/23 03:40:24;;;;;;;5.75;2.17;;;15.50;65.20;;;14.51;63.03;101304.34;12255751;19;20042;-85
2022/10/23 03:44:26;;;;;;;1.75;1.65;;;15.60;65.20;;;14.69;63.16;101327.81;12255252;19;20030;-84
2022/10/23 03:48:28;;;;;;;1.70;1.60;;;15.60;65.20;;;14.76;63.25;101345.72;12254092;19;20134;-85
2022/10/23 03:52:33;;;;;;;1.98;1.85;;;15.60;65.20;;;14.69;63.32;101338.31;12255021;19;20148;-85
2022/10/23 03:56:35;;;;;;;3.33;1.95;;;15.60;65.20;;;14.76;63.46;101344.88;12252262;19;20495;-85
2022/10/23 04:00:37;;;;;;;4.18;2.13;;;15.70;65.20;;;14.81;63.35;101348.06;12253952;19;20078;-85
2022/10/23 04:04:39;;;;;;;2.50;2.30;;;15.70;65.20;;;14.34;63.05;101280.91;12252583;19;20018;-86
2022/10/23 04:08:43;;;;;;;3.67;2.15;;;15.70;64.60;;;14.77;63.13;101350.06;12250873;19;20028;-85
2022/10/23 04:12:49;;;;;;;2.45;2.25;;;15.70;64.20;;;14.64;63.11;101335.16;12265450;19;20018;-85
2022/10/23 04:16:51;;;;;;;2.17;1.85;;;15.80;64.10;;;14.66;63.11;101351.66;12263795;19;20023;-85
2022/10/23 04:20:56;;;;;;;3.73;2.03;;;15.60;64.10;;;14.59;63.08;101352.03;12260859;19;20011;-85
2022/10/23 04:24:57;;;;;;;1.83;1.65;;;15.50;63.90;;;14.65;62.98;101365.75;12264456;19;20011;-84
2022/10/23 04:28:59;;;;;;;2.90;1.67;;;15.80;64.20;;;14.60;63.06;101361.59;12260012;19;20031;-85
2022/10/23 04:33:03;;;;;;;3.58;1.85;;;15.50;64.10;;;14.49;63.26;101336.91;12265613;19;20014;-85
2022/10/23 04:37:05;;;;;;;2.53;1.63;;;15.80;64.30;;;14.49;63.16;101331.66;12261222;19;20030;-85
2022/10/23 04:41:07;;;;;;;4.05;1.80;;;15.40;63.60;;;14.57;63.10;101343.41;12264809;19;20014;-85
2022/10/23 04:45:09;;;;;;;4.45;1.50;;;15.40;62.90;;;14.48;63.13;101336.06;12263338;19;20678;-85
2022/10/23 04:49:12;;;;;;;2.45;1.88;;;15.40;63.00;;;14.48;63.08;101349.22;12264183;19;20026;-85
2022/10/23 04:53:27;;;;;;;2.00;1.90;;;15.50;63.30;;;14.41;63.14;101350.50;12266796;19;20011;-84
2022/10/23 04:57:52;;;;;;;1.90;1.80;;;15.40;63.60;;;14.26;63.11;101325.19;12258433;19;20014;-85
2022/10/23 05:01:57;;;;;;;2.33;1.98;;;15.30;63.60;;;14.28;63.08;101334.66;12260881;19;20011;-84
2022/10/23 05:05:59;;;;;;;2.22;2.13;;;15.20;63.30;;;14.09;63.01;101313.06;12259340;19;20106;-84
2022/10/23 05:10:25;;;;;;;2.50;2.30;;;15.20;63.20;;;14.30;62.98;101353.78;12261913;19;20018;-85
2022/10/23 05:14:35;;;;;;;6.35;2.63;;;15.20;62.70;;;14.16;62.96;101325.75;12260958;19;20006;-85
2022/10/23 05:18:45;;;;;;;3.47;2.33;;;15.20;62.60;;;14.04;63.07;101318.63;12255316;19;20027;-85
2022/10/23 05:22:51;;;;;;;3.10;2.70;;;15.40;62.70;;;14.19;63.00;101344.88;12256969;19;20018;-85
2022/10/23 05:26:56;;;;;;;4.65;4.05;;;15.10;62.50;;;14.05;62.92;101322.91;12256461;19;20371;-85
2022/10/23 05:31:02;;;;;;;5.40;4.43;;;15.00;62.30;;;14.03;62.91;101339.72;12260182;19;20010;-85
2022/10/23 05:35:13;;;;;;;6.47;3.80;;;15.20;62.50;;;13.50;62.78;101265.81;12257064;19;20041;-84
2022/10/23 05:39:15;;;;;;;5.53;3.13;;;14.90;62.50;;;13.83;62.93;101322.53;12258910;19;20018;-84
2022/10/23 05:43:18;;;;;;;2.60;2.33;;;14.90;62.30;;;13.59;62.84;101294.16;12260303;19;20014;-84
2022/10/23 05:47:36;;;;;;;2.78;1.75;;;14.80;62.20;;;13.88;62.85;101351.94;12257049;19;20498;-84
2022/10/23 05:52:11;;;;;;;2.10;2.00;;;14.80;62.40;;;13.39;62.85;101281.34;12259499;19;20460;-87
2022/10/23 05:56:26;;;;;;;2.05;1.95;;;14.70;62.50;;;13.79;62.86;101366.47;12258393;19;20019;-85
2022/10/23 06:00:35;;;;;;;2.55;2.35;;;14.70;62.60;;;13.73;62.99;101370.31;12259000;19;20026;-84
2022/10/23 06:04:57;;;;;;;2.47;2.28;;;14.70;62.80;;;13.68;63.10;101363.63;12256195;19;20364;-84
2022/10/23 06:09:19;;;;;;;6.22;2.70;;;14.80;63.10;;;13.76;63.08;101369.28;12256949;19;20014;-84
2022/10/23 06:13:22;;;;;;;3.92;2.95;;;14.90;62.80;;;13.71;63.03;101359.03;12258730;19;20014;-87
2022/10/23 06:17:24;;;;;;;2.97;2.67;;;14.60;62.50;;;13.70;62.96;101364.41;12255915;19;20002;-85
2022/10/23 06:21:25;;;;;;;5.95;2.30;;;14.60;62.50;;;13.52;62.91;101337.41;12258740;19;20488;-84
2022/10/23 06:25:27;;;;;;;2.67;2.20;;;14.60;62.50;;;13.69;62.99;101381.06;12257327;19;20021;-83
2022/10/23 06:29:31;;;;;;;2.30;2.10;;;14.50;62.30;;;13.50;62.87;101344.53;12258242;19;20006;-84
2022/10/23 06:33:34;;;;;;;2.00;1.85;;;14.50;62.30;;;13.56;62.93;101364.34;12255414;19;20018;-84
2022/10/23 06:37:38;;;;;;;2.13;2.00;;;14.50;62.10;;;13.50;62.79;101361.16;12253157;19;20017;-83
2022/10/23 06:41:44;;;;;;;2.65;2.45;;;14.50;62.30;;;13.50;62.95;101373.41;12255302;19;20028;-85
2022/10/23 06:46:04;;;;;;;1.80;1.70;;;14.60;62.50;;;13.47;62.92;101363.94;12251318;19;20328;-84
2022/10/23 06:50:38;;;;;;;3.25;1.70;;;14.40;62.40;;;13.44;63.02;101364.09;12255540;19;20018;-84
2022/10/23 06:54:45;;;;;;;2.08;1.80;;;14.40;62.50;;;13.48;62.89;101377.91;12256239;19;20431;-84
2022/10/23 06:59:01;;;;;;;1.75;1.65;;;14.40;62.90;;;13.47;63.04;101389.31;12250701;19;20359;-84
2022/10/23 07:03:05;;;;;;;2.53;2.33;;;14.40;63.30;;;13.42;63.04;101365.97;12255539;19;20019;-86
2022/10/23 07:07:08;;;;;;;1.85;1.75;;;14.70;63.80;;;13.43;63.11;101372.91;12251520;19;20086;-84
2022/10/23 07:11:18;;;;;;;2.30;2.08;;;14.40;63.80;;;13.45;63.20;101378.09;12257666;19;20010;-85
2022/10/23 07:15:23;;;;;;;2.13;2.03;;;14.40;64.00;;;13.49;63.21;101382.22;12256361;19;20015;-85
2022/10/23 07:19:25;;;;;;;3.50;2.42;;;14.40;64.10;;;13.56;63.06;101378.31;12260451;19;20295;-85
2022/10/23 07:23:32;;;;;;;2.92;2.63;;;14.40;64.50;;;13.06;63.08;101291.03;12261360;19;20070;-85
2022/10/23 07:27:37;;;;;;;2.55;2.40;;;14.50;64.70;;;13.52;63.50;101371.53;12258143;19;20014;-85
2022/10/23 07:31:41;;;;;;;3.95;2.92;;;14.60;65.00;;;13.62;63.32;101377.13;12257652;19;20036;-85
2022/10/23 07:36:07;;;;;;;6.10;3.55;;;14.50;65.40;;;13.59;63.34;101372.88;12258659;19;20010;-86
2022/10/23 07:40:10;;;;;;;3.05;2.65;;;14.60;65.90;;;13.61;63.44;101362.28;12252231;19;20464;-84
2022/10/23 07:44:18;;;;;;;3.42;3.20;;;14.60;66.30;;;13.50;63.44;101331.41;12254155;19;20018;-86
2022/10/23 07:48:23;;;;;;;3.57;3.27;;;14.70;66.90;;;13.46;63.51;101311.53;12259107;19;20118;-84
2022/10/23 07:52:37;;;;;;;3.63;3.33;;;14.80;67.60;;;13.98;63.73;101379.38;12267298;19;20014;-85
2022/10/23 07:56:45;;;;;;;3.78;3.47;;;15.00;68.00;;;13.91;63.73;101344.75;12263401;19;20019;-84
2022/10/23 08:01:30;;;;;;;3.00;2.70;;;15.20;68.40;;;14.12;63.73;101354.91;12265102;19;20456;-85
2022/10/23 08:05:33;;;;;;;2.92;2.72;;;15.10;68.30;;;14.21;64.00;101359.63;12261830;19;20017;-84
2022/10/23 08:09:37;;;;;;;3.80;2.97;;;15.20;68.40;;;14.34;64.00;101367.63;12266691;19;20007;-84
2022/10/23 08:13:39;;;;;;;2.95;2.72;;;15.30;68.70;;;14.46;63.97;101358.13;12259861;19;20007;-86
2022/10/23 08:17:41;;;;;;;2.85;2.63;;;15.40;68.80;;;14.19;64.00;101324.72;12254258;19;20037;-84
2022/10/23 08:21:53;;;;;;;3.40;3.13;;;15.50;68.80;;;14.57;64.09;101368.84;12259056;19;20379;-84
2022/10/23 08:26:00;;;;;;;3.72;3.20;;;15.60;68.70;;;14.60;64.07;101356.34;12257699;19;20026;-85
2022/10/23 08:30:05;;;;;;;4.75;3.85;;;15.70;69.00;;;14.46;64.32;101311.66;12262070;19;20010;-84
2022/10/23 08:34:07;;;;;;;3.55;3.25;;;15.80;69.50;;;14.90;64.17;101367.69;12258762;19;20010;-84
2022/10/23 08:38:10;;;;;;;3.83;3.53;;;15.90;69.30;;;14.62;64.28;101302.88;12255533;19;20018;-84
2022/10/23 08:42:25;;;;;;;6.03;3.20;;;16.20;69.60;;;14.86;64.30;101324.97;12259605;19;20011;-86
2022/10/23 08:46:41;;;;;;;3.83;3.50;;;16.30;69.40;;;14.71;64.31;101281.25;12257929;19;20022;-86
2022/10/23 08:51:28;;;;;;;3.63;3.28;;;16.20;70.10;;;15.22;64.34;101336.69;12260932;19;20014;-86
2022/10/23 08:55:35;;;;;;;3.75;3.13;;;16.40;69.80;;;15.47;64.36;101349.94;12257610;19;20497;-84
2022/10/23 08:59:59;;;;;;;3.25;2.95;;;16.50;69.80;;;15.61;64.49;101350.84;12260531;19;20029;-84
2022/10/23 09:04:02;;;;;;;3.72;3.42;;;16.70;70.20;;;15.74;64.58;101340.34;12259627;19;20018;-84
2022/10/23 09:08:49;;;;;;;3.15;2.75;;;16.90;70.10;;;15.96;64.65;101358.16;12257506;19;20108;-87
2022/10/23 09:12:51;;;;;;;3.10;2.83;;;17.00;69.70;;;16.06;64.85;101340.78;12257534;19;20010;-85
2022/10/23 09:17:17;;;;;;;3.78;2.88;;;17.20;69.70;;;16.22;64.76;101344.06;12259669;19;20018;-86
2022/10/23 09:21:20;;;;;;;3.08;2.88;;;17.30;69.10;;;15.92;65.02;101274.09;12261873;19;20042;-86
2022/10/23 09:25:28;;;;;;;2.88;2.47;;;17.50;69.00;;;16.58;64.82;101343.28;12261068;19;20360;-85
2022/10/23 09:29:34;;;;;;;2.83;2.53;;;17.70;68.50;;;16.72;64.88;101342.31;12265102;19;20022;-84
2022/10/23 09:33:37;;;;;;;2.30;2.10;;;17.80;68.10;;;16.68;64.83;101314.47;12265490;19;20010;-86
2022/10/23 09:37:47;;;;;;;3.40;2.88;;;18.00;68.90;;;16.93;64.86;101325.91;12263081;19;20491;-86
2022/10/23 09:41:48;;;;;;;2.85;1.98;;;18.10;68.40;;;16.80;64.71;101286.41;12262223;19;20032;-85
2022/10/23 09:46:04;;;;;;;3.13;2.25;;;18.30;68.00;;;17.25;64.88;101323.56;12256355;19;20015;-85
2022/10/23 09:50:28;;;;;;;3.72;2.33;;;18.80;68.00;;;17.53;64.97;101340.84;12261114;19;20018;-85
2022/10/23 09:54:35;;;;;;;2.28;2.08;;;18.70;67.60;;;17.70;64.93;101331.66;12259599;19;20022;-85
2022/10/23 09:58:55;;;;;;;2.22;1.80;;;18.90;66.90;;;17.90;64.80;101335.44;12257867;19;20519;-85
2022/10/23 10:03:05;;;;;;;2.20;2.00;;;19.10;66.20;;;18.09;64.61;101332.22;12262137;19;20014;-85
2022/10/23 10:07:29;;;;;;;2.03;1.60;;;19.40;65.40;;;18.23;64.61;101320.63;12259432;19;20032;-84
2022/10/23 10:11:53;;;;;;;3.25;1.80;;;19.40;66.30;;;18.31;64.43;101312.91;12267515;19;20018;-85
2022/10/23 10:16:23;;;;;;;1.48;1.38;;;19.50;65.00;;;18.49;64.26;101324.66;12262898;19;20011;-87
2022/10/23 10:21:00;;;;;;;2.08;1.67;;;19.70;65.00;;;18.59;64.62;101314.22;12262879;19;20480;-86
2022/10/23 10:25:36;;;;;;;1.98;1.50;;;19.80;63.60;;;18.74;64.09;101317.41;12262202;19;20007;-84
2022/10/23 10:29:57;;;;;;;2.20;1.65;;;19.90;63.50;;;18.73;64.30;101294.59;12261826;19;20010;-85
2022/10/23 10:34:50;;;;;;;3.30;2.08;;;20.00;63.30;;;18.94;64.21;101303.47;12256263;19;20015;-85
2022/10/23 10:38:58;;;;;;;2.05;1.58;;;20.10;61.70;;;18.95;64.03;101269.88;12253410;19;20039;-85
2022/10/23 10:43:40;;;;;;;2.92;2.00;;;20.20;63.10;;;19.20;64.16;101297.84;12256974;19;20022;-85
2022/10/23 10:48:14;;;;;;;1.27;1.17;;;20.40;63.10;;;19.15;64.05;101270.91;12248912;19;20007;-88
2022/10/23 10:53:16;;;;;;;2.13;1.30;;;20.50;63.40;;;19.32;63.91;101278.28;12252806;19;20022;-87
2022/10/23 10:57:38;;;;;;;1.40;1.25;;;20.60;63.30;;;19.50;63.97;101269.78;12246150;19;20014;-87
2022/10/23 11:02:24;;;;;;;3.17;1.20;;;20.70;63.20;;;19.64;63.80;101288.84;12252402;19;20021;-86
2022/10/23 11:06:32;;;;;;;1.98;1.50;;;20.90;62.70;;;19.76;63.90;101278.19;12249442;19;20468;-86
2022/10/23 11:10:38;;;;;;;1.52;1.40;;;20.90;62.50;;;19.85;63.88;101270.31;12252679;19;20404;-86
2022/10/23 11:14:42;;;;;;;1.73;1.33;;;21.00;62.30;;;19.98;63.57;101264.78;12251700;19;20010;-86
2022/10/23 11:19:08;;;;;;;1.20;1.10;;;21.10;61.20;;;19.77;63.11;101209.16;12247395;19;20035;-86
2022/10/23 11:24:01;;;;;;;1.13;1.02;;;21.30;61.50;;;20.11;63.34;101249.47;12262608;19;20820;-86
2022/10/23 11:28:35;;;;;;;2.80;1.10;;;21.30;61.20;;;20.08;63.24;101233.81;12267010;19;20468;-86
2022/10/23 11:33:17;;;;;;;2.53;1.20;;;21.30;59.50;;;20.19;62.96;101224.94;12269750;19;20002;-86
2022/10/23 11:37:21;;;;;;;3.63;1.10;;;21.30;59.60;;;20.30;62.96;101226.63;12259717;19;20024;-86
2022/10/23 11:41:32;;;;;;;1.80;1.05;;;21.40;59.80;;;20.24;62.96;101206.81;12269142;19;20353;-85
2022/10/23 11:45:39;;;;;;;2.25;1.10;;;21.50;59.80;;;20.32;62.52;101204.31;12265293;19;20030;-86
2022/10/23 11:49:41;;;;;;;1.77;0.90;;;21.40;59.10;;;20.45;62.24;101205.88;12266179;19;20487;-85
2022/10/23 11:53:42;;;;;;;1.10;1.00;;;21.50;59.20;;;20.48;62.37;101206.44;12264743;19;20015;-86
2022/10/23 11:58:06;;;;;;;0.80;0.80;;;21.60;59.10;;;20.52;62.24;101209.66;12260808;19;20035;-86
2022/10/23 12:02:36;;;;;;;1.67;1.00;;;21.60;59.10;;;20.58;62.14;101206.50;12265282;19;20010;-85
2022/10/23 12:06:45;;;;;;;1.58;1.00;;;21.60;59.30;;;20.62;62.25;101194.63;12264113;19;20035;-85
2022/10/23 12:10:57;;;;;;;1.90;0.90;;;21.70;59.60;;;20.49;61.76;101168.31;12266631;19;20010;-86
2022/10/23 12:15:10;;;;;;;1.77;1.25;;;21.70;58.70;;;20.67;61.72;101199.50;12262484;19;20050;-86
2022/10/23 12:19:21;;;;;;;2.50;1.08;;;21.70;59.00;;;20.72;61.71;101189.31;12264999;19;20011;-85
2022/10/23 12:23:48;;;;;;;1.50;0.85;;;21.90;59.30;;;20.70;61.79;101170.88;12267019;19;20019;-85
2022/10/23 12:28:09;;;;;;;2.55;1.20;;;21.80;58.80;;;20.74;61.67;101168.78;12262894;19;20039;-87
2022/10/23 12:32:54;;;;;;;3.08;1.38;;;21.80;58.60;;;20.77;61.67;101177.31;12263723;19;20014;-86
2022/10/23 12:37:37;;;;;;;2.60;1.10;;;21.80;58.60;;;20.81;61.20;101166.41;12264332;19;20014;-85
2022/10/23 12:41:38;;;;;;;1.38;1.10;;;21.80;58.70;;;20.71;61.42;101135.41;12266089;19;20015;-85
2022/10/23 12:45:43;;;;;;;2.58;0.90;;;21.80;58.70;;;20.86;61.23;101158.84;12265172;19;20387;-84
2022/10/23 12:49:49;;;;;;;3.07;1.30;;;21.80;58.60;;;20.85;61.11;101147.41;12264136;19;20100;-86
2022/10/23 12:53:52;;;;;;;6.25;1.50;;;21.80;58.60;;;20.88;61.40;101151.59;12262409;19;20056;-85
2022/10/23 12:57:54;;;;;;;3.22;2.53;;;21.80;58.40;;;20.78;61.32;101125.03;12262444;19;20018;-84
2022/10/23 13:01:59;;;;;;;11.15;2.50;;;21.80;58.50;;;20.75;60.96;101110.25;12264334;19;20014;-85
2022/10/23 13:06:02;;;;;;;3.05;1.20;;;21.80;58.90;;;20.88;61.04;101122.38;12260733;19;20010;-85
2022/10/23 13:10:05;;;;;;;2.33;1.45;;;21.90;59.20;;;20.84;61.17;101103.22;12265097;19;20006;-86
2022/10/23 13:14:13;;;;;;;1.48;1.33;;;21.90;59.30;;;20.95;61.35;101126.13;12262127;19;20018;-85
2022/10/23 13:18:16;;;;;;;2.22;1.60;;;21.90;58.90;;;20.85;61.09;101093.47;12260259;19;20014;-86
2022/10/23 13:22:21;;;;;;;2.67;1.55;;;22.00;58.90;;;20.68;60.90;101053.38;12263849;19;20003;-86
2022/10/23 13:26:41;;;;;;;;;;;21.90;59.00;;;20.82;61.24;101080.47;12262454;19;20029;-86
2022/10/23 13:30:45;;;;;;;1.45;0.77;;;21.90;59.50;;;20.93;60.82;101089.13;12264411;19;19914;-85
2022/10/23 13:34:54;;;;;;;1.52;0.80;;;21.90;59.10;;;20.72;60.72;101057.44;12265010;19;20052;-85
2022/10/23 13:39:11;;;;;;;1.23;0.85;;;21.90;59.20;;;20.97;61.00;101089.66;12259458;19;20087;-87
2022/10/23 13:43:17;;;;;;;4.88;1.08;;;21.90;59.30;;;20.99;60.92;101085.06;12260969;19;20043;-87
2022/10/23 13:47:19;;;;;;;1.42;1.02;;;21.90;59.40;;;20.98;60.89;101070.94;12257357;19;20043;-84
2022/10/23 13:51:27;;;;;;;1.98;1.02;;;22.00;59.30;;;20.95;61.05;101073.03;12264493;19;20015;-85
2022/10/23 13:55:32;;;;;;;1.38;1.00;;;21.90;59.50;;;21.01;60.93;101077.78;12265041;19;20010;-86
2022/10/23 13:59:33;;;;;;;1.23;1.13;;;21.90;59.60;;;20.96;60.72;101074.72;12264572;19;20532;-85
2022/10/23 14:03:35;;;;;;;2.03;1.33;;;21.90;59.60;;;21.04;60.89;101079.31;12259059;19;20279;-84
2022/10/23 14:07:37;;;;;;;2.25;1.52;;;21.90;59.50;;;21.00;60.85;101073.44;12254099;19;20336;-84
2022/10/23 14:11:42;;;;;;;3.25;1.30;;;22.00;59.50;;;21.02;60.69;101063.53;12258047;19;20015;-84
2022/10/23 14:15:52;;;;;;;1.60;1.10;;;21.90;59.40;;;21.03;60.96;101059.88;12252867;19;20015;-84
2022/10/23 14:19:54;;;;;;;2.25;1.00;;;21.90;59.40;;;20.96;60.63;101050.81;12258771;19;20014;-84
2022/10/23 14:23:59;;;;;;;1.92;1.10;;;21.90;59.60;;;20.95;60.87;101050.00;12257869;19;20082;-84
2022/10/23 14:28:01;;;;;;;1.00;0.95;;;21.90;59.70;;;21.01;60.77;101051.22;12252739;19;20370;-84
2022/10/23 14:32:02;;;;;;;1.35;1.25;;;21.80;59.60;;;21.02;60.34;101058.22;12254078;19;20006;-84
2022/10/23 14:36:04;;;;;;;3.13;1.10;;;21.80;59.70;;;21.01;60.84;101056.53;12252190;19;20393;-85
2022/10/23 14:40:07;;;;;;;2.33;1.10;;;21.80;59.60;;;20.99;60.70;101047.88;12255027;19;20007;-84
2022/10/23 14:44:09;;;;;;;1.15;1.05;;;21.80;59.70;;;20.90;60.62;101038.97;12254179;19;20368;-86
2022/10/23 14:48:11;;;;;;;1.77;1.10;;;21.80;60.00;;;20.90;60.64;101028.34;12251965;19;20040;-83
2022/10/23 14:52:12;;;;;;;2.47;1.30;;;21.70;60.00;;;20.92;60.77;101036.97;12256949;19;20064;-84
2022/10/23 14:56:15;;;;;;;1.77;1.00;;;21.80;60.00;;;20.85;60.86;101024.47;12258798;19;20039;-84
2022/10/23 15:00:17;;;;;;;1.23;0.93;;;21.70;60.40;;;20.82;60.79;101022.94;12253533;19;20077;-82
2022/10/23 15:04:19;;;;;;;2.80;0.93;;;21.60;60.80;;;20.78;60.35;101025.00;12254702;19;20014;-85
2022/10/23 15:08:22;;;;;;;2.03;0.85;;;21.60;60.60;;;20.76;60.54;101023.47;12248789;19;20027;-84
2022/10/23 15:12:23;;;;;;;1.48;0.85;;;21.60;61.00;;;20.71;60.46;101012.44;12252629;19;20382;-83
2022/10/23 15:16:25;;;;;;;1.48;0.90;;;21.50;61.00;;;20.70;61.00;101021.41;12253029;19;20022;-83
2022/10/23 15:20:27;;;;;;;2.35;1.17;;;21.50;60.90;;;20.59;60.70;101005.66;12252404;19;20357;-84
2022/10/23 15:24:28;;;;;;;1.48;0.95;;;21.40;61.10;;;20.38;60.86;100976.59;12252398;19;20014;-85
2022/10/23 15:28:31;;;;;;;5.80;1.42;;;21.40;60.90;;;20.53;60.98;101002.59;12250419;19;20066;-84
2022/10/23 15:32:32;;;;;;;2.10;0.90;;;21.30;60.90;;;20.40;60.45;100985.25;12252486;19;20006;-84
2022/10/23 15:36:34;;;;;;;2.75;1.02;;;21.40;61.10;;;20.42;60.40;100996.56;12256540;19;20025;-86
2022/10/23 15:40:35;;;;;;;1.70;1.10;;;21.30;61.10;;;20.27;60.75;100983.72;12261910;19;20015;-86
2022/10/23 15:44:40;;;;;;;2.22;1.10;;;21.10;61.00;;;20.27;60.47;100985.56;12256465;19;20344;-83
2022/10/23 15:48:41;;;;;;;1.50;1.20;;;21.20;61.00;;;19.87;60.61;100928.22;12254275;19;20002;-84
2022/10/23 15:52:43;;;;;;;1.65;1.23;;;20.90;60.70;;;19.99;60.75;100958.09;12257099;19;20006;-83
2022/10/23 15:56:51;;;;;;;2.05;1.40;;;20.80;60.80;;;19.93;60.60;100958.63;12254964;19;20014;-82
2022/10/23 16:00:52;;;;;;;2.53;1.33;;;20.70;60.80;;;19.83;60.37;100964.78;12261743;19;20026;-83
2022/10/23 16:04:54;;;;;;;2.25;0.80;;;20.60;60.70;;;19.77;60.26;100954.75;12264106;19;20007;-86
2022/10/23 16:08:56;;;;;;;1.92;0.82;;;20.60;60.70;;;19.64;60.64;100943.53;12265257;19;20097;-84
2022/10/23 16:12:57;;;;;;;2.67;0.80;;;20.40;60.80;;;19.67;60.34;100969.78;12264897;19;20074;-84
2022/10/23 16:16:59;;;;;;;1.88;1.20;;;20.40;61.20;;;19.61;60.40;100970.31;12264915;19;20109;-84
2022/10/23 16:21:00;;;;;;;2.83;1.50;;;20.40;61.30;;;19.40;60.63;100949.22;12272262;19;20018;-85
2022/10/23 16:25:02;;;;;;;2.00;1.35;;;20.20;61.30;;;19.48;60.64;100957.31;12268107;19;20468;-85
2022/10/23 16:29:07;;;;;;;4.25;1.40;;;20.20;61.50;;;19.36;60.85;100950.44;12265804;19;20015;-85
2022/10/23 16:33:08;;;;;;;2.05;1.50;;;20.30;61.60;;;19.38;60.78;100962.59;12270129;19;20015;-84
2022/10/23 16:37:10;;;;;;;4.00;1.45;;;20.10;61.60;;;19.24;60.63;100936.50;12267711;19;20010;-85
2022/10/23 16:41:44;;;;;;;1.50;1.15;;;20.00;61.60;;;19.01;60.46;100899.66;12269775;19;20061;-84
2022/10/23 16:46:05;;;;;;;3.10;1.23;;;20.00;61.80;;;19.26;60.77;100944.31;12269246;19;20036;-85
2022/10/23 16:50:07;;;;;;;2.40;1.75;;;19.90;61.80;;;19.23;60.77;100950.72;12265483;19;20006;-84
2022/10/23 16:54:09;;;;;;;9.07;1.77;;;19.90;61.90;;;18.92;60.86;100883.75;12268610;19;20007;-84
2022/10/23 16:58:12;;;;;;;1.30;1.15;;;19.80;61.80;;;18.79;60.66;100871.59;12266747;19;20011;-85
2022/10/23 17:02:13;;;;;;;4.50;1.33;;;19.80;61.90;;;19.06;60.82;100927.53;12264003;19;20463;-84
2022/10/23 17:06:19;;;;;;;8.32;1.70;;;19.90;62.10;;;19.01;60.89;100933.25;12263460;19;20018;-84
2022/10/23 17:10:21;;;;;;;3.05;1.38;;;19.70;62.00;;;18.94;60.62;100911.75;12267579;19;20026;-84